createdAt,value
2022-12-03T00:02:10.287Z,101401.91
2022-12-03T00:04:36.655Z,101397.78
2022-12-03T00:07:03.037Z,101394.50
2022-12-03T00:09:29.400Z,101398.19
2022-12-03T00:11:55.697Z,101400.66
2022-12-03T00:14:22.025Z,101394.91
2022-12-03T00:16:48.936Z,101401.31
2022-12-03T00:19:15.389Z,101403.97
2022-12-03T00:21:41.712Z,101398.03
2022-12-03T00:24:08.507Z,101404.56
2022-12-03T00:26:34.812Z,101403.56
2022-12-03T00:29:01.117Z,101398.03
2022-12-03T00:31:27.499Z,101394.50
2022-12-03T00:33:53.954Z,101398.81
2022-12-03T00:36:20.437Z,101395.16
2022-12-03T00:38:46.764Z,101389.56
2022-12-03T00:41:13.124Z,101392.06
2022-12-03T00:43:39.462Z,101389.19
2022-12-03T00:46:06.077Z,101386.72
2022-12-03T00:48:32.441Z,101381.78
2022-12-03T00:50:58.769Z,101384.66
2022-12-03T00:53:25.163Z,101382.59
2022-12-03T00:55:51.490Z,101377.66
2022-12-03T00:58:18.316Z,101380.72
2022-12-03T01:00:44.661Z,101375.81
2022-12-03T01:03:11.119Z,101378.91
2022-12-03T01:05:37.601Z,101391.63
2022-12-03T01:08:04.095Z,101383.41
2022-12-03T01:10:30.555Z,101392.84
2022-12-03T01:12:56.853Z,101386.50
2022-12-03T01:15:23.207Z,101389.97
2022-12-03T01:17:49.583Z,101389.19
2022-12-03T01:20:15.929Z,101392.84
2022-12-03T01:22:42.243Z,101397.19
2022-12-03T01:25:09.024Z,101395.53
2022-12-03T01:27:35.334Z,101399.84
2022-12-03T01:30:01.774Z,101397.41
2022-12-03T01:32:28.122Z,101384.03
2022-12-03T01:34:55.876Z,101392.84
2022-12-03T01:37:24.957Z,101396.97
2022-12-03T01:39:51.868Z,101400.00
2022-12-03T01:42:22.078Z,101397.34
2022-12-03T01:44:51.237Z,101403.50
2022-12-03T01:47:20.245Z,101405.34
2022-12-03T01:49:54.199Z,101401.28
2022-12-03T01:52:24.773Z,101405.97
2022-12-03T01:54:55.712Z,101401.22
2022-12-03T01:57:27.200Z,101398.56
2022-12-03T01:59:56.119Z,101405.13
2022-12-03T02:02:31.122Z,101407.97
2022-12-03T02:04:58.479Z,101402.22
2022-12-03T02:07:30.475Z,101399.78
2022-12-03T02:09:58.969Z,101408.00
2022-12-03T02:12:31.969Z,101404.72
2022-12-03T02:14:59.363Z,101409.47
2022-12-03T02:17:26.750Z,101410.69
2022-12-03T02:19:54.036Z,101403.09
2022-12-03T02:22:32.372Z,101405.53
2022-12-03T02:25:04.917Z,101401.00
2022-12-03T02:27:31.248Z,101394.66
2022-12-03T02:29:57.702Z,101387.03
2022-12-03T02:32:24.175Z,101392.78
2022-12-03T02:34:51.056Z,101389.91
2022-12-03T02:37:22.398Z,101393.41
2022-12-03T02:39:53.657Z,101400.44
2022-12-03T02:42:20.592Z,101393.44
2022-12-03T02:44:46.938Z,101391.94
2022-12-03T02:47:13.405Z,101393.63
2022-12-03T02:49:40.366Z,101394.91
2022-12-03T02:52:06.809Z,101396.50
2022-12-03T02:54:33.247Z,101395.69
2022-12-03T02:56:59.804Z,101399.59
2022-12-03T02:59:26.166Z,101398.16
2022-12-03T03:01:52.659Z,101397.53
2022-12-03T03:04:19.249Z,101389.13
2022-12-03T03:06:45.736Z,101399.38
2022-12-03T03:09:12.496Z,101396.16
2022-12-03T03:11:38.927Z,101394.69
2022-12-03T03:14:05.360Z,101392.41
2022-12-03T03:16:33.797Z,101396.34
2022-12-03T03:19:01.057Z,101396.44
2022-12-03T03:21:27.761Z,101387.41
2022-12-03T03:23:54.165Z,101394.81
2022-12-03T03:26:20.524Z,101390.50
2022-12-03T03:28:49.805Z,101388.66
2022-12-03T03:31:19.377Z,101389.50
2022-12-03T03:33:48.013Z,101379.66
2022-12-03T03:36:15.155Z,101381.28
2022-12-03T03:38:41.724Z,101383.56
2022-12-03T03:41:09.737Z,101384.41
2022-12-03T03:43:39.807Z,101385.00
2022-12-03T03:46:07.372Z,101374.78
2022-12-03T03:48:35.181Z,101377.84
2022-12-03T03:51:03.157Z,101376.00
2022-12-03T03:53:30.779Z,101379.69
2022-12-03T03:55:57.202Z,101378.44
2022-12-03T03:58:23.707Z,101375.09
2022-12-03T04:00:50.105Z,101374.91
2022-12-03T04:03:16.447Z,101380.25
2022-12-03T04:05:42.877Z,101375.72
2022-12-03T04:08:09.306Z,101369.97
2022-12-03T04:10:35.687Z,101370.94
2022-12-03T04:13:02.278Z,101373.78
2022-12-03T04:15:29.188Z,101374.59
2022-12-03T04:17:55.811Z,101372.97
2022-12-03T04:20:22.162Z,101360.69
2022-12-03T04:22:48.479Z,101372.97
2022-12-03T04:25:14.839Z,101368.91
2022-12-03T04:27:41.169Z,101360.91
2022-12-03T04:30:08.165Z,101375.47
2022-12-03T04:32:34.510Z,101363.59
2022-12-03T04:35:01.031Z,101360.75
2022-12-03T04:37:27.510Z,101359.47
2022-12-03T04:39:53.955Z,101359.06
2022-12-03T04:42:20.295Z,101358.25
2022-12-03T04:44:46.628Z,101367.66
2022-12-03T04:47:19.276Z,101358.81
2022-12-03T04:49:48.404Z,101359.94
2022-12-03T04:52:17.070Z,101362.13
2022-12-03T04:54:43.930Z,101361.75
2022-12-03T04:57:11.318Z,101356.38
2022-12-03T04:59:38.186Z,101356.56
2022-12-03T05:02:05.693Z,101361.19
2022-12-03T05:04:32.181Z,101366.97
2022-12-03T05:06:58.502Z,101364.06
2022-12-03T05:09:24.849Z,101366.16
2022-12-03T05:11:51.224Z,101372.31
2022-12-03T05:14:17.566Z,101352.09
2022-12-03T05:16:43.969Z,101358.84
2022-12-03T05:19:10.408Z,101355.75
2022-12-03T05:21:36.791Z,101362.28
2022-12-03T05:24:03.460Z,101361.09
2022-12-03T05:26:29.801Z,101353.38
2022-12-03T05:28:56.135Z,101357.22
2022-12-03T05:31:22.632Z,101351.22
2022-12-03T05:33:49.012Z,101356.34
2022-12-03T05:36:15.393Z,101349.78
2022-12-03T05:38:41.775Z,101348.78
2022-12-03T05:41:08.094Z,101343.88
2022-12-03T05:43:34.438Z,101348.41
2022-12-03T05:46:00.798Z,101357.84
2022-12-03T05:48:27.145Z,101349.69
2022-12-03T05:50:53.461Z,101355.00
2022-12-03T05:53:19.799Z,101351.25
2022-12-03T05:55:46.120Z,101354.13
2022-12-03T05:58:12.455Z,101355.66
2022-12-03T06:00:42.645Z,101361.50
2022-12-03T06:03:09.551Z,101362.06
2022-12-03T06:05:36.053Z,101363.75
2022-12-03T06:08:02.531Z,101362.63
2022-12-03T06:10:29.645Z,101350.00
2022-12-03T06:12:56.194Z,101349.84
2022-12-03T06:15:23.353Z,101353.72
2022-12-03T06:17:49.706Z,101352.84
2022-12-03T06:20:19.066Z,101349.56
2022-12-03T06:22:45.651Z,101354.00
2022-12-03T06:25:13.049Z,101357.91
2022-12-03T06:27:39.410Z,101353.28
2022-12-03T06:30:06.994Z,101349.22
2022-12-03T06:32:33.306Z,101350.41
2022-12-03T06:34:59.677Z,101347.75
2022-12-03T06:37:26.035Z,101350.19
2022-12-03T06:39:52.384Z,101338.88
2022-12-03T06:42:18.757Z,101342.53
2022-12-03T06:44:45.088Z,101347.91
2022-12-03T06:47:11.423Z,101341.38
2022-12-03T06:49:37.769Z,101347.66
2022-12-03T06:52:04.213Z,101346.63
2022-12-03T06:54:30.532Z,101348.06
2022-12-03T06:56:56.882Z,101344.78
2022-12-03T06:59:23.204Z,101345.84
2022-12-03T07:01:49.554Z,101348.72
2022-12-03T07:04:15.921Z,101346.47
2022-12-03T07:06:42.343Z,101331.09
2022-12-03T07:09:08.702Z,101348.25
2022-12-03T07:11:35.046Z,101341.31
2022-12-03T07:14:05.393Z,101340.47
2022-12-03T07:16:32.270Z,101341.56
2022-12-03T07:18:58.664Z,101336.69
2022-12-03T07:21:24.977Z,101336.22
2022-12-03T07:23:51.362Z,101346.13
2022-12-03T07:26:17.661Z,101333.66
2022-12-03T07:28:43.976Z,101334.66
2022-12-03T07:31:10.333Z,101336.50
2022-12-03T07:33:36.728Z,101340.16
2022-12-03T07:36:03.153Z,101332.78
2022-12-03T07:38:29.468Z,101343.03
2022-12-03T07:40:55.788Z,101336.88
2022-12-03T07:43:22.129Z,101339.97
2022-12-03T07:45:48.653Z,101336.06
2022-12-03T07:48:14.988Z,101341.34
2022-12-03T07:50:41.357Z,101335.13
2022-12-03T07:53:07.676Z,101333.47
2022-12-03T07:55:33.997Z,101331.00
2022-12-03T07:58:00.329Z,101327.72
2022-12-03T08:00:26.785Z,101331.03
2022-12-03T08:02:53.166Z,101324.31
2022-12-03T08:05:19.518Z,101320.69
2022-12-03T08:07:45.929Z,101328.44
2022-12-03T08:10:12.307Z,101319.41
2022-12-03T08:12:39.728Z,101328.22
2022-12-03T08:15:12.536Z,101332.09
2022-12-03T08:17:39.256Z,101327.97
2022-12-03T08:20:24.351Z,101330.63
2022-12-03T08:22:51.784Z,101334.75
2022-12-03T08:25:29.019Z,101334.59
2022-12-03T08:28:15.588Z,101332.22
2022-12-03T08:30:44.406Z,101333.13
2022-12-03T08:33:20.269Z,101333.06
2022-12-03T08:35:50.040Z,101333.06
2022-12-03T08:38:18.414Z,101328.59
2022-12-03T08:40:47.621Z,101329.09
2022-12-03T08:43:24.286Z,101327.44
2022-12-03T08:45:52.847Z,101325.53
2022-12-03T08:48:22.972Z,101325.78
2022-12-03T08:50:49.350Z,101325.78
2022-12-03T08:53:30.832Z,101322.72
2022-12-03T08:55:59.807Z,101327.91
2022-12-03T08:58:41.251Z,101325.94
2022-12-03T09:01:10.721Z,101318.13
2022-12-03T09:04:04.299Z,101335.50
2022-12-03T09:06:30.718Z,101319.19
2022-12-03T09:08:57.058Z,101322.03
2022-12-03T09:11:23.397Z,101317.63
2022-12-03T09:13:49.703Z,101325.59
2022-12-03T09:16:16.069Z,101320.38
2022-12-03T09:18:42.427Z,101322.28
2022-12-03T09:21:08.743Z,101311.81
2022-12-03T09:23:35.047Z,101323.41
2022-12-03T09:26:01.374Z,101323.34
2022-12-03T09:28:27.676Z,101319.50
2022-12-03T09:30:54.009Z,101306.53
2022-12-03T09:33:20.309Z,101305.66
2022-12-03T09:35:46.666Z,101308.63
2022-12-03T09:38:12.985Z,101313.97
2022-12-03T09:40:39.334Z,101306.16
2022-12-03T09:43:05.905Z,101302.50
2022-12-03T09:45:32.317Z,101309.47
2022-12-03T09:48:01.689Z,101313.09
2022-12-03T09:50:28.052Z,101310.50
2022-12-03T09:52:57.698Z,101310.47
2022-12-03T09:55:27.682Z,101303.94
2022-12-03T09:57:55.911Z,101309.66
2022-12-03T10:00:26.158Z,101312.72
2022-12-03T10:02:56.407Z,101306.34
2022-12-03T10:05:23.692Z,101303.72
2022-12-03T10:07:51.999Z,101303.09
2022-12-03T10:10:21.727Z,101292.00
2022-12-03T10:12:48.930Z,101283.19
2022-12-03T10:15:18.933Z,101284.44
2022-12-03T10:17:50.696Z,101286.28
2022-12-03T10:20:19.968Z,101278.66
2022-12-03T10:22:46.365Z,101273.34
2022-12-03T10:25:15.445Z,101279.28
2022-12-03T10:27:42.550Z,101286.06
2022-12-03T10:30:18.784Z,101282.19
2022-12-03T10:32:46.387Z,101274.13
2022-12-03T10:35:22.028Z,101276.59
2022-12-03T10:38:01.770Z,101274.91
2022-12-03T10:40:33.453Z,101267.56
2022-12-03T10:43:18.125Z,101263.88
2022-12-03T10:46:04.417Z,101261.41
2022-12-03T10:48:31.253Z,101252.56
2022-12-03T10:51:18.093Z,101254.44
2022-12-03T10:53:44.492Z,101257.13
2022-12-03T10:56:17.659Z,101251.34
2022-12-03T10:58:44.029Z,101248.50
2022-12-03T11:01:17.378Z,101248.09
2022-12-03T11:03:44.451Z,101247.69
2022-12-03T11:06:16.470Z,101236.75
2022-12-03T11:08:45.514Z,101242.53
2022-12-03T11:11:20.032Z,101225.31
2022-12-03T11:13:50.659Z,101232.69
2022-12-03T11:16:38.848Z,101229.75
2022-12-03T11:19:45.602Z,101231.06
2022-12-03T11:22:11.864Z,101234.13
2022-12-03T11:24:41.004Z,101226.47
2022-12-03T11:27:10.362Z,101229.38
2022-12-03T11:30:00.837Z,101226.13
2022-12-03T11:32:38.994Z,101221.81
2022-12-03T11:35:12.748Z,101214.41
2022-12-03T11:37:39.261Z,101215.44
2022-12-03T11:40:17.537Z,101217.09
2022-12-03T11:42:46.050Z,101210.31
2022-12-03T11:45:22.778Z,101210.91
2022-12-03T11:48:14.070Z,101209.59
2022-12-03T11:50:50.710Z,101198.13
2022-12-03T11:53:22.060Z,101196.72
2022-12-03T11:55:51.972Z,101187.06
2022-12-03T11:58:29.986Z,101192.03
2022-12-03T12:00:58.497Z,101192.00
2022-12-03T12:03:33.192Z,101188.97
2022-12-03T12:06:11.156Z,101188.75
2022-12-03T12:08:59.384Z,101184.66
2022-12-03T12:11:26.963Z,101188.72
2022-12-03T12:13:56.752Z,101186.03
2022-12-03T12:16:45.939Z,101179.91
2022-12-03T12:19:34.051Z,101173.56
2022-12-03T12:22:23.565Z,101177.91
2022-12-03T12:24:52.532Z,101181.38
2022-12-03T12:27:20.976Z,101170.28
2022-12-03T12:30:02.099Z,101170.69
2022-12-03T12:32:33.822Z,101169.03
2022-12-03T12:35:12.976Z,101165.38
2022-12-03T12:37:50.117Z,101166.16
2022-12-03T12:40:26.870Z,101163.31
2022-12-03T12:43:13.526Z,101163.31
2022-12-03T12:45:43.747Z,101162.63
2022-12-03T12:48:10.115Z,101163.72
2022-12-03T12:50:38.521Z,101156.72
2022-12-03T12:53:10.970Z,101158.00
2022-12-03T12:55:40.751Z,101153.06
2022-12-03T12:58:17.590Z,101164.97
2022-12-03T13:00:50.945Z,101161.91
2022-12-03T13:03:20.054Z,101159.41
2022-12-03T13:05:48.682Z,101163.94
2022-12-03T13:08:37.219Z,101156.97
2022-12-03T13:11:03.725Z,101157.16
2022-12-03T13:13:29.997Z,101150.00
2022-12-03T13:16:22.862Z,101140.13
2022-12-03T13:19:02.112Z,101146.91
2022-12-03T13:21:40.156Z,101145.63
2022-12-03T13:24:35.385Z,101146.69
2022-12-03T13:27:13.666Z,101146.94
2022-12-03T13:29:40.096Z,101138.50
2022-12-03T13:32:35.639Z,101138.13
2022-12-03T13:35:22.115Z,101129.28
2022-12-03T13:37:48.591Z,101128.06
2022-12-03T13:40:28.577Z,101125.19
2022-12-03T13:42:54.926Z,101127.44
2022-12-03T13:45:27.084Z,101125.78
2022-12-03T13:47:56.418Z,101122.50
2022-12-03T13:50:28.523Z,101126.78
2022-12-03T13:52:55.149Z,101124.31
2022-12-03T13:55:31.771Z,101125.16
2022-12-03T13:57:58.150Z,101120.03
2022-12-03T14:00:24.506Z,101114.69
2022-12-03T14:02:50.933Z,101113.69
2022-12-03T14:05:17.341Z,101114.91
2022-12-03T14:07:43.848Z,101119.81
2022-12-03T14:10:12.012Z,101113.28
2022-12-03T14:12:38.705Z,101106.88
2022-12-03T14:15:06.413Z,101110.38
2022-12-03T14:17:32.907Z,101115.53
2022-12-03T14:20:00.184Z,101114.47
2022-12-03T14:22:26.774Z,101114.72
2022-12-03T14:24:54.011Z,101119.44
2022-12-03T14:27:21.282Z,101110.78
2022-12-03T14:29:47.762Z,101099.97
2022-12-03T14:32:14.138Z,101104.69
2022-12-03T14:34:40.969Z,101099.53
2022-12-03T14:37:07.725Z,101101.78
2022-12-03T14:39:34.082Z,101105.03
2022-12-03T14:42:00.433Z,101107.75
2022-12-03T14:44:26.771Z,101106.69
2022-12-03T14:46:57.029Z,101104.88
2022-12-03T14:49:23.806Z,101108.97
2022-12-03T14:51:50.136Z,101111.63
2022-12-03T14:54:16.510Z,101109.59
2022-12-03T14:56:42.909Z,101107.34
2022-12-03T14:59:09.210Z,101106.50
2022-12-03T15:01:35.589Z,101107.50
2022-12-03T15:04:01.966Z,101104.63
2022-12-03T15:06:28.386Z,101099.94
2022-12-03T15:08:54.972Z,101104.47
2022-12-03T15:11:24.610Z,101111.63
2022-12-03T15:13:51.034Z,101097.69
2022-12-03T15:16:17.510Z,101112.66
2022-12-03T15:18:43.876Z,101112.47
2022-12-03T15:21:10.271Z,101116.56
2022-12-03T15:23:36.637Z,101114.91
2022-12-03T15:26:03.541Z,101113.69
2022-12-03T15:28:29.879Z,101105.91
2022-12-03T15:30:56.374Z,101114.50
2022-12-03T15:33:22.721Z,101114.50
2022-12-03T15:35:49.528Z,101115.72
2022-12-03T15:38:15.799Z,101113.69
2022-12-03T15:40:42.130Z,101114.50
2022-12-03T15:43:09.226Z,101111.22
2022-12-03T15:45:36.220Z,101107.53
2022-12-03T15:48:02.691Z,101115.34
2022-12-03T15:50:29.109Z,101105.06
2022-12-03T15:52:55.693Z,101101.19
2022-12-03T15:55:22.195Z,101100.16
2022-12-03T15:57:48.672Z,101096.06
2022-12-03T16:00:16.051Z,101098.91
2022-12-03T16:02:47.532Z,101105.91
2022-12-03T16:05:17.396Z,101112.03
2022-12-03T16:07:43.840Z,101105.91
2022-12-03T16:10:11.233Z,101108.53
2022-12-03T16:12:37.571Z,101095.63
2022-12-03T16:15:04.279Z,101104.69
2022-12-03T16:17:30.651Z,101105.28
2022-12-03T16:19:57.166Z,101106.72
2022-12-03T16:22:23.609Z,101099.34
2022-12-03T16:24:49.927Z,101100.97
2022-12-03T16:27:16.262Z,101090.72
2022-12-03T16:29:42.583Z,101091.91
2022-12-03T16:32:08.920Z,101095.66
2022-12-03T16:34:35.226Z,101092.38
2022-12-03T16:37:01.546Z,101082.91
2022-12-03T16:39:27.874Z,101088.44
2022-12-03T16:41:54.176Z,101082.50
2022-12-03T16:44:20.500Z,101082.09
2022-12-03T16:46:47.054Z,101079.63
2022-12-03T16:49:13.455Z,101076.78
2022-12-03T16:51:39.844Z,101073.50
2022-12-03T16:54:06.164Z,101070.63
2022-12-03T16:56:32.484Z,101081.28
2022-12-03T16:58:58.801Z,101083.13
2022-12-03T17:01:25.166Z,101075.75
2022-12-03T17:03:51.507Z,101087.00
2022-12-03T17:06:17.865Z,101078.38
2022-12-03T17:08:49.037Z,101084.19
2022-12-03T17:11:16.128Z,101078.22
2022-12-03T17:13:42.522Z,101084.56
2022-12-03T17:16:09.068Z,101081.28
2022-12-03T17:18:35.440Z,101080.88
2022-12-03T17:21:01.817Z,101080.06
2022-12-03T17:23:28.162Z,101088.66
2022-12-03T17:25:54.658Z,101074.13
2022-12-03T17:28:21.010Z,101074.94
2022-12-03T17:30:47.391Z,101073.09
2022-12-03T17:33:13.808Z,101081.28
2022-12-03T17:35:40.175Z,101079.66
2022-12-03T17:38:06.488Z,101083.31
2022-12-03T17:40:32.851Z,101070.63
2022-12-03T17:42:59.159Z,101076.16
2022-12-03T17:45:25.502Z,101078.00
2022-12-03T17:47:51.812Z,101073.69
2022-12-03T17:50:18.209Z,101074.31
2022-12-03T17:52:44.554Z,101080.66
2022-12-03T17:55:14.567Z,101074.31
2022-12-03T17:57:47.871Z,101074.94
2022-12-03T18:00:14.421Z,101067.34
2022-12-03T18:02:40.744Z,101070.22
2022-12-03T18:05:07.326Z,101071.84
2022-12-03T18:07:33.935Z,101067.16
2022-12-03T18:10:00.330Z,101062.84
2022-12-03T18:12:26.868Z,101068.97
2022-12-03T18:14:53.221Z,101067.34
2022-12-03T18:17:19.537Z,101076.78
2022-12-03T18:19:45.909Z,101072.25
2022-12-03T18:22:12.292Z,101064.00
2022-12-03T18:24:38.769Z,101067.31
2022-12-03T18:27:05.120Z,101065.28
2022-12-03T18:29:31.771Z,101064.88
2022-12-03T18:31:58.341Z,101051.31
2022-12-03T18:34:24.703Z,101058.72
2022-12-03T18:36:51.218Z,101059.13
2022-12-03T18:39:27.229Z,101057.72
2022-12-03T18:41:53.886Z,101059.13
2022-12-03T18:44:20.556Z,101055.88
2022-12-03T18:46:54.922Z,101058.94
2022-12-03T18:49:21.867Z,101060.78
2022-12-03T18:51:48.581Z,101058.31
2022-12-03T18:54:15.495Z,101061.19
2022-12-03T18:56:41.893Z,101058.75
2022-12-03T18:59:08.867Z,101055.88
2022-12-03T19:01:36.107Z,101053.41
2022-12-03T19:04:02.990Z,101044.59
2022-12-03T19:06:29.418Z,101047.69
2022-12-03T19:08:56.354Z,101041.50
2022-12-03T19:11:22.877Z,101037.81
2022-12-03T19:13:49.193Z,101039.47
2022-12-03T19:16:15.594Z,101040.28
2022-12-03T19:18:42.403Z,101038.22
2022-12-03T19:21:11.680Z,101041.31
2022-12-03T19:23:39.132Z,101041.72
2022-12-03T19:26:09.251Z,101048.50
2022-12-03T19:28:36.113Z,101057.53
2022-12-03T19:31:06.144Z,101050.53
2022-12-03T19:33:33.322Z,101050.53
2022-12-03T19:36:00.592Z,101053.78
2022-12-03T19:38:28.702Z,101051.53
2022-12-03T19:41:05.915Z,101054.63
2022-12-03T19:43:33.644Z,101054.44
2022-12-03T19:46:08.379Z,101046.00
2022-12-03T19:48:35.178Z,101050.31
2022-12-03T19:51:19.742Z,101051.16
2022-12-03T19:53:48.270Z,101051.53
2022-12-03T19:56:17.346Z,101047.88
2022-12-03T19:58:45.577Z,101052.16
2022-12-03T20:01:17.653Z,101050.13
2022-12-03T20:03:49.755Z,101050.94
2022-12-03T20:06:18.288Z,101050.13
2022-12-03T20:08:45.490Z,101053.78
2022-12-03T20:11:17.436Z,101052.34
2022-12-03T20:13:44.547Z,101048.84
2022-12-03T20:16:13.872Z,101047.25
2022-12-03T20:18:41.790Z,101045.63
2022-12-03T20:21:09.867Z,101048.50
2022-12-03T20:23:36.624Z,101040.69
2022-12-03T20:26:07.273Z,101040.06
2022-12-03T20:28:33.583Z,101043.94
2022-12-03T20:31:17.872Z,101044.38
2022-12-03T20:33:47.541Z,101055.84
2022-12-03T20:36:16.303Z,101046.44
2022-12-03T20:38:42.957Z,101048.28
2022-12-03T20:41:12.590Z,101048.25
2022-12-03T20:43:39.136Z,101043.13
2022-12-03T20:46:19.868Z,101041.28
2022-12-03T20:48:46.814Z,101044.75
2022-12-03T20:51:18.792Z,101043.13
2022-12-03T20:53:46.309Z,101038.44
2022-12-03T20:56:28.017Z,101045.16
2022-12-03T20:58:54.364Z,101037.81
2022-12-03T21:01:23.830Z,101036.16
2022-12-03T21:03:52.492Z,101036.59
2022-12-03T21:06:19.656Z,101032.09
2022-12-03T21:08:46.288Z,101030.41
2022-12-03T21:11:16.320Z,101035.16
2022-12-03T21:13:43.110Z,101031.22
2022-12-03T21:16:12.538Z,101025.44
2022-12-03T21:18:39.073Z,101034.50
2022-12-03T21:21:06.977Z,101036.16
2022-12-03T21:23:33.890Z,101030.22
2022-12-03T21:26:09.488Z,101027.75
2022-12-03T21:28:38.211Z,101026.75
2022-12-03T21:31:07.558Z,101021.78
2022-12-03T21:33:34.984Z,101023.84
2022-12-03T21:36:02.081Z,101028.78
2022-12-03T21:38:29.424Z,101027.09
2022-12-03T21:40:56.775Z,101030.78
2022-12-03T21:43:24.149Z,101026.28
2022-12-03T21:45:50.984Z,101025.22
2022-12-03T21:48:17.620Z,101028.72
2022-12-03T21:50:45.311Z,101033.09
2022-12-03T21:53:12.751Z,101032.22
2022-12-03T21:55:40.511Z,101032.38
2022-12-03T21:58:08.167Z,101030.38
2022-12-03T22:00:34.660Z,101034.53
2022-12-03T22:03:01.086Z,101027.50
2022-12-03T22:05:27.489Z,101031.31
2022-12-03T22:07:53.832Z,101033.09
2022-12-03T22:10:20.362Z,101030.50
2022-12-03T22:12:46.738Z,101035.47
2022-12-03T22:15:18.466Z,101033.59
2022-12-03T22:17:45.380Z,101032.88
2022-12-03T22:20:12.163Z,101027.56
2022-12-03T22:22:38.460Z,101022.84
2022-12-03T22:25:05.003Z,101021.78
2022-12-03T22:27:31.370Z,101016.59
2022-12-03T22:29:57.851Z,101018.88
2022-12-03T22:32:24.245Z,101024.16
2022-12-03T22:34:50.598Z,101018.03
2022-12-03T22:37:17.011Z,101019.47
2022-12-03T22:39:43.370Z,101012.88
2022-12-03T22:42:09.857Z,101008.81
2022-12-03T22:44:37.312Z,101009.06
2022-12-03T22:47:03.949Z,101004.34
2022-12-03T22:49:30.318Z,101002.88
2022-12-03T22:51:56.660Z,101003.00
2022-12-03T22:54:24.289Z,101002.88
2022-12-03T22:56:50.989Z,100999.38
2022-12-03T22:59:17.385Z,100993.88
2022-12-03T23:01:43.724Z,100998.22
2022-12-03T23:04:11.017Z,101004.19
2022-12-03T23:06:37.683Z,100998.44
2022-12-03T23:09:05.956Z,100996.72
2022-12-03T23:11:32.310Z,100997.19
2022-12-03T23:13:58.741Z,100998.41
2022-12-03T23:16:28.067Z,100993.66
2022-12-03T23:18:57.867Z,100993.44
2022-12-03T23:21:29.923Z,100992.69
2022-12-03T23:24:01.075Z,100998.63
2022-12-03T23:26:28.423Z,100995.06
2022-12-03T23:28:55.129Z,100991.50
2022-12-03T23:31:26.354Z,100989.78
2022-12-03T23:33:53.610Z,100985.88
2022-12-03T23:36:21.252Z,100992.03
2022-12-03T23:38:47.598Z,100979.88
2022-12-03T23:41:16.653Z,100976.25
2022-12-03T23:43:43.562Z,100981.56
2022-12-03T23:46:13.347Z,100981.16
2022-12-03T23:48:39.829Z,100976.78
2022-12-03T23:51:12.039Z,100970.44
2022-12-03T23:53:39.082Z,100972.94
2022-12-03T23:56:11.118Z,100969.22
2022-12-03T23:58:37.780Z,100975.91
